Ana Sayfa
METAR-TAF:

METAR-TAF

Havaalanları :

Jaffrey, New Hampshire, Amerika Birleşik Devletleri

Enlem: 42-48-21N, Boylam: 072-00-02W, yükseklik: 317 m

Güncel hava durumu gözlemi

Rapor saat 00:52 UTC de 29 dakika önce yapıldı.
Sakin rüzgar
Sıcaklık 21°C
Nem 78%
Basınç 1010 hPa
Görüş mesafesi: 16.1 km
9000 ft yükseklikte çok bulutlu

METAR: KAFN 200052Z AUTO 00000KT 10SM OVC090 21/17 A2982 RMK AO2 SLP097 T02110172

Saat: 21:21 (01:21 UTC)


TAF: eksik

4.000'den fazla havaalanı için hava durumu gözlemleri ve tahminleri (METAR ve TAF raporları).

Kullanılabilir istasyonlar harita üzerinde sarı ve kırmızı noktalarla gösterilir.

İstasyonun adını görmek için fareyi noktanın üzerinde gezdirin.

Sonrasında hava gözlem ve tahminlerini görmek için tıklayın.

Haritayı değiştirmek için: yaklaştırmak için siyah artı işaretli yeşil düğmeye ve uzaklaştırmak için de eksi işaretli düğmeye hızla tıklayın; bitişik haritalar için yeşil okları kullanın.


METAR-TAF: